Lizella, Georgia
Current Conditions -  °F | °C
As of 4:53 AM on Friday 19 Dec 2014 (Local Time) from KMCN Reporting Station
Clear Clear  
Wind Chill: -1°   Ceiling: Unl
Heat Index:   Visibility: 10mi
Dew Point:   Wind: 5mph
Humidity: 89%   Direction: 260°W
Pressure: 30.12"   Gusts: NA
Location:  32.81°N, 83.82°W
Report Text: KMCN 190953Z AUTO 26004KT 10SM CLR 02/00 A3012 RMK AO2 SLP199 T00170000 TSNO
Loading
Personal Weather Stations






























Interactive Weather Map New forecast layout! Learn more

10-Day Weather Forecast

Advertisements
Track Severe Weather on mobile